03:23
Airports
History
Links
Donate
Help keep this website running!
PayPal
Bitcoin
Information on this page is community maintained and may be outdated or inaccurate and is intended for reference only or PC simulator navigating!
Always use approved charts for navigating.
SBSJ
Sao Jose Dos Campos
Sao Jose Dos Campos (SBSJ)
São José dos Campos, São Paulo, Brazil (12227)
(C)
Lat/Lng:23° 13' 41.42" S / 45° 51' 45.86" W
-23.228171 / -45.862738
Elevation:2120'ft 646mMSL
ID / ICAO:SBSJ
Runways:1
Longest:(15-33) 2,655.4m 8,712ft Asphalt
Controlled:Yes
Distance To
Airport ID:
Airport Radio Frequencies
Ground: 121.9
Tower: 118.5
Approach: 119.25, 129.05
METARUpdated 03-26-17 03:00 GMT
Altimeter: 30.06
Visibility: 6.2 statute miles
Wind: 4 knots (190°)
Temp: 18°c 64°f
Humidity: 88.1%

METAR: SBSJ 260300Z 19004KT CAVOK 18/16 Q1018

(Powered by phpweather)
Runway 15 / 33
Dimensions:2655.4 x 45.1m 8712' x 148'ft
Surface:Asphalt
Edge Lights:High intensity
Runway 15 [A]Runway 33 [B]
Heading:135°TH 315°TH
Lat:
Lng:
23° 13' 10.86"S
45° 52' 18.96"W
23° 14' 11.97"S
45° 51' 12.75"W
ALS:MALS
Google Map
Nearby Airports
4 Fazenda Centro de Voo a Vela Ipua 13.9 NM
SDIP NNE 23°
4 Fazenda Maristela 25.2 NM
SDMA NE 41°
(C) BASE DE AVIACAO DE TAUBATE 25.6 NM
SBTA ENE 59°
4 Fazenda Irohy 26.7 NM
SDIH SSW 209°
4 Monte Verde 27.8 NM
SNEJ NNW 336°
(U) FAZENDA SANTA HELENA 33.1 NM
SDZH NE 45°
4 Pindamonhangaba 33.7 NM
SDPD NE 54°
VFR Chart
Flight Planning at SkyVector.com